Terminal Aerodrome Forecast
Issued by NWS

Home | Current Version | Previous Version | Text Only | Print | Product List | Glossary On
Versions: 1 2 3 4 5 6 7 8 9 10 11 12 13 14 15 16 17
000
FTUS43 KAPX 190659 AAA
TAFPLN
TAF AMD
KPLN 190659Z 1907/2006 33012G23KT P6SM -SHSN OVC025
      TEMPO 1909/1912 3SM -SHSN
     FM191200 32013G24KT 6SM -SHSN BKN025
      TEMPO 1912/1916 2SM -SHSN
     FM191800 30012G21KT P6SM VCSH BKN040
     FM200200 28010G18KT P6SM BKN040=

USA.gov is the U.S. government's official web portal to all federal, state and local government web resources and services.